sensor_id;sensor_type;location;lat;lon;timestamp;P1;durP1;ratioP1;P2;durP2;ratioP2
9860;SDS011;4969;52.304;4.968;2024-03-02T00:00:36;2.20;;;1.35;;
9860;SDS011;4969;52.304;4.968;2024-03-02T00:03:03;2.13;;;1.33;;
9860;SDS011;4969;52.304;4.968;2024-03-02T00:05:32;1.20;;;1.10;;
9860;SDS011;4969;52.304;4.968;2024-03-02T00:07:58;0.95;;;0.80;;
9860;SDS011;4969;52.304;4.968;2024-03-02T00:10:26;1.35;;;1.15;;
9860;SDS011;4969;52.304;4.968;2024-03-02T00:12:56;1.10;;;0.80;;
9860;SDS011;4969;52.304;4.968;2024-03-02T00:15:31;0.68;;;0.68;;
9860;SDS011;4969;52.304;4.968;2024-03-02T00:18:07;0.73;;;0.70;;
9860;SDS011;4969;52.304;4.968;2024-03-02T00:20:37;0.80;;;0.68;;
9860;SDS011;4969;52.304;4.968;2024-03-02T00:23:06;0.75;;;0.47;;
9860;SDS011;4969;52.304;4.968;2024-03-02T00:25:40;0.47;;;0.47;;
9860;SDS011;4969;52.304;4.968;2024-03-02T00:28:17;0.75;;;0.47;;
9860;SDS011;4969;52.304;4.968;2024-03-02T00:30:51;0.40;;;0.40;;
9860;SDS011;4969;52.304;4.968;2024-03-02T00:33:21;1.08;;;0.57;;
9860;SDS011;4969;52.304;4.968;2024-03-02T00:35:49;0.35;;;0.30;;
9860;SDS011;4969;52.304;4.968;2024-03-02T00:38:16;0.77;;;0.40;;
9860;SDS011;4969;52.304;4.968;2024-03-02T00:40:43;0.57;;;0.40;;
9860;SDS011;4969;52.304;4.968;2024-03-02T00:43:12;0.30;;;0.30;;
9860;SDS011;4969;52.304;4.968;2024-03-02T00:46:00;0.38;;;0.30;;
9860;SDS011;4969;52.304;4.968;2024-03-02T00:48:27;0.30;;;0.30;;
9860;SDS011;4969;52.304;4.968;2024-03-02T00:50:55;1.85;;;0.40;;
9860;SDS011;4969;52.304;4.968;2024-03-02T00:53:22;0.20;;;0.20;;
9860;SDS011;4969;52.304;4.968;2024-03-02T00:55:52;0.52;;;0.28;;
9860;SDS011;4969;52.304;4.968;2024-03-02T00:58:19;0.98;;;0.40;;
9860;SDS011;4969;52.304;4.968;2024-03-02T01:00:46;0.70;;;0.50;;
9860;SDS011;4969;52.304;4.968;2024-03-02T01:03:12;0.45;;;0.28;;
9860;SDS011;4969;52.304;4.968;2024-03-02T01:05:40;0.38;;;0.35;;
9860;SDS011;4969;52.304;4.968;2024-03-02T01:08:09;0.28;;;0.28;;
9860;SDS011;4969;52.304;4.968;2024-03-02T01:10:36;0.47;;;0.30;;
9860;SDS011;4969;52.304;4.968;2024-03-02T01:13:03;0.20;;;0.20;;
9860;SDS011;4969;52.304;4.968;2024-03-02T01:15:30;0.85;;;0.35;;
9860;SDS011;4969;52.304;4.968;2024-03-02T01:17:56;0.20;;;0.20;;
9860;SDS011;4969;52.304;4.968;2024-03-02T01:20:23;0.30;;;0.30;;
9860;SDS011;4969;52.304;4.968;2024-03-02T01:22:50;0.47;;;0.40;;
9860;SDS011;4969;52.304;4.968;2024-03-02T01:25:18;0.70;;;0.40;;
9860;SDS011;4969;52.304;4.968;2024-03-02T01:27:45;0.40;;;0.40;;
9860;SDS011;4969;52.304;4.968;2024-03-02T01:30:12;0.65;;;0.40;;
9860;SDS011;4969;52.304;4.968;2024-03-02T01:32:38;0.50;;;0.40;;
9860;SDS011;4969;52.304;4.968;2024-03-02T01:35:05;0.43;;;0.40;;
9860;SDS011;4969;52.304;4.968;2024-03-02T01:37:32;0.43;;;0.40;;
9860;SDS011;4969;52.304;4.968;2024-03-02T01:39:59;0.65;;;0.60;;
9860;SDS011;4969;52.304;4.968;2024-03-02T01:42:27;0.40;;;0.40;;
9860;SDS011;4969;52.304;4.968;2024-03-02T01:44:54;0.85;;;0.50;;
9860;SDS011;4969;52.304;4.968;2024-03-02T01:47:20;0.55;;;0.55;;
9860;SDS011;4969;52.304;4.968;2024-03-02T01:49:47;1.15;;;0.50;;
9860;SDS011;4969;52.304;4.968;2024-03-02T01:52:14;0.50;;;0.50;;
9860;SDS011;4969;52.304;4.968;2024-03-02T01:54:41;0.50;;;0.50;;
9860;SDS011;4969;52.304;4.968;2024-03-02T01:57:07;0.50;;;0.50;;
9860;SDS011;4969;52.304;4.968;2024-03-02T01:59:35;0.68;;;0.68;;
9860;SDS011;4969;52.304;4.968;2024-03-02T02:02:02;0.40;;;0.40;;
9860;SDS011;4969;52.304;4.968;2024-03-02T02:04:28;1.20;;;0.43;;
9860;SDS011;4969;52.304;4.968;2024-03-02T02:06:55;0.40;;;0.40;;
9860;SDS011;4969;52.304;4.968;2024-03-02T02:09:22;1.30;;;0.57;;
9860;SDS011;4969;52.304;4.968;2024-03-02T02:11:49;0.50;;;0.50;;
9860;SDS011;4969;52.304;4.968;2024-03-02T02:14:16;1.80;;;0.40;;
9860;SDS011;4969;52.304;4.968;2024-03-02T02:16:45;1.17;;;0.50;;
9860;SDS011;4969;52.304;4.968;2024-03-02T02:19:11;0.40;;;0.40;;
9860;SDS011;4969;52.304;4.968;2024-03-02T02:21:43;0.40;;;0.35;;
9860;SDS011;4969;52.304;4.968;2024-03-02T02:24:09;0.63;;;0.52;;
9860;SDS011;4969;52.304;4.968;2024-03-02T02:26:38;0.43;;;0.40;;
9860;SDS011;4969;52.304;4.968;2024-03-02T02:29:04;0.43;;;0.43;;
9860;SDS011;4969;52.304;4.968;2024-03-02T02:31:36;0.40;;;0.40;;
9860;SDS011;4969;52.304;4.968;2024-03-02T02:34:03;0.32;;;0.30;;
9860;SDS011;4969;52.304;4.968;2024-03-02T02:36:30;0.55;;;0.40;;
9860;SDS011;4969;52.304;4.968;2024-03-02T02:38:58;0.50;;;0.50;;
9860;SDS011;4969;52.304;4.968;2024-03-02T02:41:28;0.40;;;0.40;;
9860;SDS011;4969;52.304;4.968;2024-03-02T02:43:55;0.40;;;0.35;;
9860;SDS011;4969;52.304;4.968;2024-03-02T02:46:21;1.33;;;0.38;;
9860;SDS011;4969;52.304;4.968;2024-03-02T02:48:48;1.50;;;0.50;;
9860;SDS011;4969;52.304;4.968;2024-03-02T02:51:16;0.68;;;0.20;;
9860;SDS011;4969;52.304;4.968;2024-03-02T02:53:43;0.40;;;0.40;;
9860;SDS011;4969;52.304;4.968;2024-03-02T02:56:11;0.35;;;0.35;;
9860;SDS011;4969;52.304;4.968;2024-03-02T02:58:37;0.40;;;0.40;;
9860;SDS011;4969;52.304;4.968;2024-03-02T03:01:04;0.40;;;0.10;;
9860;SDS011;4969;52.304;4.968;2024-03-02T03:03:30;0.40;;;0.40;;
9860;SDS011;4969;52.304;4.968;2024-03-02T03:05:57;0.30;;;0.30;;
9860;SDS011;4969;52.304;4.968;2024-03-02T03:08:23;0.40;;;0.32;;
9860;SDS011;4969;52.304;4.968;2024-03-02T03:10:50;0.47;;;0.35;;
9860;SDS011;4969;52.304;4.968;2024-03-02T03:13:18;0.32;;;0.30;;
9860;SDS011;4969;52.304;4.968;2024-03-02T03:15:44;0.43;;;0.43;;
9860;SDS011;4969;52.304;4.968;2024-03-02T03:18:11;0.43;;;0.40;;
9860;SDS011;4969;52.304;4.968;2024-03-02T03:20:38;0.50;;;0.50;;
9860;SDS011;4969;52.304;4.968;2024-03-02T03:23:04;0.50;;;0.50;;
9860;SDS011;4969;52.304;4.968;2024-03-02T03:25:31;0.38;;;0.38;;
9860;SDS011;4969;52.304;4.968;2024-03-02T03:27:57;0.88;;;0.40;;
9860;SDS011;4969;52.304;4.968;2024-03-02T03:30:25;0.73;;;0.40;;
9860;SDS011;4969;52.304;4.968;2024-03-02T03:32:52;0.40;;;0.40;;
9860;SDS011;4969;52.304;4.968;2024-03-02T03:35:18;0.55;;;0.55;;
9860;SDS011;4969;52.304;4.968;2024-03-02T03:37:45;1.67;;;0.75;;
9860;SDS011;4969;52.304;4.968;2024-03-02T03:40:11;0.40;;;0.40;;
9860;SDS011;4969;52.304;4.968;2024-03-02T03:42:39;0.40;;;0.40;;
9860;SDS011;4969;52.304;4.968;2024-03-02T03:45:06;0.40;;;0.40;;
9860;SDS011;4969;52.304;4.968;2024-03-02T03:47:34;0.40;;;0.40;;
9860;SDS011;4969;52.304;4.968;2024-03-02T03:50:01;0.80;;;0.52;;
9860;SDS011;4969;52.304;4.968;2024-03-02T03:52:31;0.73;;;0.60;;
9860;SDS011;4969;52.304;4.968;2024-03-02T03:54:58;0.35;;;0.35;;
9860;SDS011;4969;52.304;4.968;2024-03-02T03:57:25;0.40;;;0.40;;
9860;SDS011;4969;52.304;4.968;2024-03-02T03:59:51;0.93;;;0.40;;
9860;SDS011;4969;52.304;4.968;2024-03-02T04:02:18;0.77;;;0.47;;
9860;SDS011;4969;52.304;4.968;2024-03-02T04:04:46;0.50;;;0.50;;
9860;SDS011;4969;52.304;4.968;2024-03-02T04:07:12;0.50;;;0.40;;
9860;SDS011;4969;52.304;4.968;2024-03-02T04:09:39;0.40;;;0.40;;
9860;SDS011;4969;52.304;4.968;2024-03-02T04:12:05;0.50;;;0.50;;
9860;SDS011;4969;52.304;4.968;2024-03-02T04:14:32;0.50;;;0.50;;
9860;SDS011;4969;52.304;4.968;2024-03-02T04:16:59;0.65;;;0.40;;
9860;SDS011;4969;52.304;4.968;2024-03-02T04:19:25;1.05;;;0.50;;
9860;SDS011;4969;52.304;4.968;2024-03-02T04:21:53;0.50;;;0.50;;
9860;SDS011;4969;52.304;4.968;2024-03-02T04:24:20;0.65;;;0.43;;
9860;SDS011;4969;52.304;4.968;2024-03-02T04:26:46;0.40;;;0.40;;
9860;SDS011;4969;52.304;4.968;2024-03-02T04:29:13;0.30;;;0.30;;
9860;SDS011;4969;52.304;4.968;2024-03-02T04:31:39;0.50;;;0.47;;
9860;SDS011;4969;52.304;4.968;2024-03-02T04:34:06;0.60;;;0.45;;
9860;SDS011;4969;52.304;4.968;2024-03-02T04:36:33;0.75;;;0.60;;
9860;SDS011;4969;52.304;4.968;2024-03-02T04:39:01;0.73;;;0.47;;
9860;SDS011;4969;52.304;4.968;2024-03-02T04:41:27;0.55;;;0.50;;
9860;SDS011;4969;52.304;4.968;2024-03-02T04:43:54;0.75;;;0.55;;
9860;SDS011;4969;52.304;4.968;2024-03-02T04:46:20;0.43;;;0.40;;
9860;SDS011;4969;52.304;4.968;2024-03-02T04:48:47;0.40;;;0.40;;
9860;SDS011;4969;52.304;4.968;2024-03-02T04:51:20;0.50;;;0.45;;
9860;SDS011;4969;52.304;4.968;2024-03-02T04:53:46;0.45;;;0.40;;
9860;SDS011;4969;52.304;4.968;2024-03-02T04:56:14;0.50;;;0.50;;
9860;SDS011;4969;52.304;4.968;2024-03-02T04:58:55;0.70;;;0.50;;
9860;SDS011;4969;52.304;4.968;2024-03-02T05:01:21;0.52;;;0.40;;
9860;SDS011;4969;52.304;4.968;2024-03-02T05:03:48;1.17;;;0.60;;
9860;SDS011;4969;52.304;4.968;2024-03-02T05:06:14;0.77;;;0.50;;
9860;SDS011;4969;52.304;4.968;2024-03-02T05:08:41;0.65;;;0.65;;
9860;SDS011;4969;52.304;4.968;2024-03-02T05:11:09;0.57;;;0.47;;
9860;SDS011;4969;52.304;4.968;2024-03-02T05:13:55;0.68;;;0.68;;
9860;SDS011;4969;52.304;4.968;2024-03-02T05:16:21;0.93;;;0.60;;
9860;SDS011;4969;52.304;4.968;2024-03-02T05:18:48;0.82;;;0.60;;
9860;SDS011;4969;52.304;4.968;2024-03-02T05:21:15;1.05;;;0.70;;
9860;SDS011;4969;52.304;4.968;2024-03-02T05:23:41;1.20;;;0.50;;
9860;SDS011;4969;52.304;4.968;2024-03-02T05:26:08;1.40;;;0.47;;
9860;SDS011;4969;52.304;4.968;2024-03-02T05:28:36;0.45;;;0.45;;
9860;SDS011;4969;52.304;4.968;2024-03-02T05:31:04;0.70;;;0.50;;
9860;SDS011;4969;52.304;4.968;2024-03-02T05:33:30;0.75;;;0.40;;
9860;SDS011;4969;52.304;4.968;2024-03-02T05:35:58;0.60;;;0.57;;
9860;SDS011;4969;52.304;4.968;2024-03-02T05:38:25;0.90;;;0.70;;
9860;SDS011;4969;52.304;4.968;2024-03-02T05:40:51;1.15;;;0.68;;
9860;SDS011;4969;52.304;4.968;2024-03-02T05:43:18;0.60;;;0.60;;
9860;SDS011;4969;52.304;4.968;2024-03-02T05:45:45;1.10;;;0.55;;
9860;SDS011;4969;52.304;4.968;2024-03-02T05:48:12;2.30;;;0.68;;
9860;SDS011;4969;52.304;4.968;2024-03-02T05:50:39;1.40;;;0.60;;
9860;SDS011;4969;52.304;4.968;2024-03-02T05:53:05;1.23;;;0.50;;
9860;SDS011;4969;52.304;4.968;2024-03-02T05:55:32;1.45;;;0.60;;
9860;SDS011;4969;52.304;4.968;2024-03-02T05:57:59;0.85;;;0.63;;
9860;SDS011;4969;52.304;4.968;2024-03-02T06:00:40;1.23;;;0.70;;
9860;SDS011;4969;52.304;4.968;2024-03-02T06:03:07;0.60;;;0.60;;
9860;SDS011;4969;52.304;4.968;2024-03-02T06:05:35;0.75;;;0.68;;
9860;SDS011;4969;52.304;4.968;2024-03-02T06:08:02;0.60;;;0.52;;
9860;SDS011;4969;52.304;4.968;2024-03-02T06:10:29;1.10;;;0.65;;
9860;SDS011;4969;52.304;4.968;2024-03-02T06:12:56;0.73;;;0.50;;
9860;SDS011;4969;52.304;4.968;2024-03-02T06:15:24;0.85;;;0.50;;
9860;SDS011;4969;52.304;4.968;2024-03-02T06:17:50;2.08;;;0.60;;
9860;SDS011;4969;52.304;4.968;2024-03-02T06:20:17;0.45;;;0.40;;
9860;SDS011;4969;52.304;4.968;2024-03-02T06:22:45;0.93;;;0.80;;
9860;SDS011;4969;52.304;4.968;2024-03-02T06:25:11;1.00;;;0.68;;
9860;SDS011;4969;52.304;4.968;2024-03-02T06:27:38;0.63;;;0.60;;
9860;SDS011;4969;52.304;4.968;2024-03-02T06:30:05;0.85;;;0.50;;
9860;SDS011;4969;52.304;4.968;2024-03-02T06:32:33;1.08;;;0.68;;
9860;SDS011;4969;52.304;4.968;2024-03-02T06:35:00;1.35;;;0.60;;
9860;SDS011;4969;52.304;4.968;2024-03-02T06:37:26;1.15;;;0.28;;
9860;SDS011;4969;52.304;4.968;2024-03-02T06:39:54;0.50;;;0.50;;
9860;SDS011;4969;52.304;4.968;2024-03-02T06:42:20;0.60;;;0.43;;
9860;SDS011;4969;52.304;4.968;2024-03-02T06:44:47;2.53;;;0.65;;
9860;SDS011;4969;52.304;4.968;2024-03-02T06:47:14;1.42;;;0.50;;
9860;SDS011;4969;52.304;4.968;2024-03-02T06:49:41;4.45;;;0.65;;
9860;SDS011;4969;52.304;4.968;2024-03-02T06:52:08;1.85;;;0.57;;
9860;SDS011;4969;52.304;4.968;2024-03-02T06:54:34;0.70;;;0.50;;
9860;SDS011;4969;52.304;4.968;2024-03-02T06:57:04;0.65;;;0.50;;
9860;SDS011;4969;52.304;4.968;2024-03-02T06:59:30;1.38;;;0.70;;
9860;SDS011;4969;52.304;4.968;2024-03-02T07:01:58;1.88;;;0.70;;
9860;SDS011;4969;52.304;4.968;2024-03-02T07:04:25;0.50;;;0.50;;
9860;SDS011;4969;52.304;4.968;2024-03-02T07:06:51;1.67;;;0.93;;
9860;SDS011;4969;52.304;4.968;2024-03-02T07:09:18;1.27;;;0.63;;
9860;SDS011;4969;52.304;4.968;2024-03-02T07:11:47;0.85;;;0.57;;
9860;SDS011;4969;52.304;4.968;2024-03-02T07:14:15;1.33;;;0.65;;
9860;SDS011;4969;52.304;4.968;2024-03-02T07:16:42;3.55;;;0.55;;
9860;SDS011;4969;52.304;4.968;2024-03-02T07:19:08;0.98;;;0.50;;
9860;SDS011;4969;52.304;4.968;2024-03-02T07:21:35;1.23;;;0.68;;
9860;SDS011;4969;52.304;4.968;2024-03-02T07:24:01;0.50;;;0.45;;
9860;SDS011;4969;52.304;4.968;2024-03-02T07:26:29;1.42;;;0.90;;
9860;SDS011;4969;52.304;4.968;2024-03-02T07:28:57;2.33;;;0.85;;
9860;SDS011;4969;52.304;4.968;2024-03-02T07:31:25;1.67;;;0.82;;
9860;SDS011;4969;52.304;4.968;2024-03-02T07:33:51;2.60;;;0.70;;
9860;SDS011;4969;52.304;4.968;2024-03-02T07:36:18;2.15;;;0.70;;
9860;SDS011;4969;52.304;4.968;2024-03-02T07:38:45;1.55;;;0.85;;
9860;SDS011;4969;52.304;4.968;2024-03-02T07:41:15;1.58;;;0.88;;
9860;SDS011;4969;52.304;4.968;2024-03-02T07:43:41;1.42;;;0.80;;
9860;SDS011;4969;52.304;4.968;2024-03-02T07:46:08;1.15;;;0.77;;
9860;SDS011;4969;52.304;4.968;2024-03-02T07:48:36;1.38;;;0.50;;
9860;SDS011;4969;52.304;4.968;2024-03-02T07:51:03;1.33;;;0.90;;
9860;SDS011;4969;52.304;4.968;2024-03-02T07:53:30;1.75;;;0.60;;
9860;SDS011;4969;52.304;4.968;2024-03-02T07:55:56;1.40;;;0.68;;
9860;SDS011;4969;52.304;4.968;2024-03-02T07:58:27;0.85;;;0.65;;
9860;SDS011;4969;52.304;4.968;2024-03-02T08:00:54;0.88;;;0.60;;
9860;SDS011;4969;52.304;4.968;2024-03-02T08:03:20;1.45;;;0.77;;
9860;SDS011;4969;52.304;4.968;2024-03-02T08:05:48;1.38;;;1.00;;
9860;SDS011;4969;52.304;4.968;2024-03-02T08:08:15;1.77;;;0.55;;
9860;SDS011;4969;52.304;4.968;2024-03-02T08:10:42;1.67;;;0.68;;
9860;SDS011;4969;52.304;4.968;2024-03-02T08:13:08;1.73;;;0.93;;
9860;SDS011;4969;52.304;4.968;2024-03-02T08:15:35;0.60;;;0.60;;
9860;SDS011;4969;52.304;4.968;2024-03-02T08:18:01;2.75;;;0.80;;
9860;SDS011;4969;52.304;4.968;2024-03-02T08:20:28;1.08;;;0.82;;
9860;SDS011;4969;52.304;4.968;2024-03-02T08:22:56;0.80;;;0.77;;
9860;SDS011;4969;52.304;4.968;2024-03-02T08:25:22;1.85;;;0.90;;
9860;SDS011;4969;52.304;4.968;2024-03-02T08:27:49;3.17;;;0.90;;
9860;SDS011;4969;52.304;4.968;2024-03-02T08:30:15;0.95;;;0.80;;
9860;SDS011;4969;52.304;4.968;2024-03-02T08:32:43;1.20;;;0.70;;
9860;SDS011;4969;52.304;4.968;2024-03-02T08:35:10;1.00;;;0.80;;
9860;SDS011;4969;52.304;4.968;2024-03-02T08:37:37;1.55;;;0.93;;
9860;SDS011;4969;52.304;4.968;2024-03-02T08:40:07;3.10;;;0.90;;
9860;SDS011;4969;52.304;4.968;2024-03-02T08:42:35;1.23;;;0.90;;
9860;SDS011;4969;52.304;4.968;2024-03-02T08:45:02;1.45;;;0.82;;
9860;SDS011;4969;52.304;4.968;2024-03-02T08:47:29;1.50;;;0.93;;
9860;SDS011;4969;52.304;4.968;2024-03-02T08:49:55;2.17;;;0.85;;
9860;SDS011;4969;52.304;4.968;2024-03-02T08:52:22;2.65;;;1.00;;
9860;SDS011;4969;52.304;4.968;2024-03-02T08:54:48;2.03;;;0.70;;
9860;SDS011;4969;52.304;4.968;2024-03-02T08:57:16;1.45;;;0.93;;
9860;SDS011;4969;52.304;4.968;2024-03-02T08:59:43;1.15;;;0.77;;
9860;SDS011;4969;52.304;4.968;2024-03-02T09:02:10;3.70;;;0.85;;
9860;SDS011;4969;52.304;4.968;2024-03-02T09:04:37;2.78;;;1.08;;
9860;SDS011;4969;52.304;4.968;2024-03-02T09:07:03;3.35;;;1.08;;
9860;SDS011;4969;52.304;4.968;2024-03-02T09:09:30;2.63;;;0.82;;
9860;SDS011;4969;52.304;4.968;2024-03-02T09:11:57;3.38;;;0.88;;
9860;SDS011;4969;52.304;4.968;2024-03-02T09:14:25;2.28;;;1.08;;
9860;SDS011;4969;52.304;4.968;2024-03-02T09:16:52;1.95;;;0.93;;
9860;SDS011;4969;52.304;4.968;2024-03-02T09:19:18;1.13;;;0.52;;
9860;SDS011;4969;52.304;4.968;2024-03-02T09:21:45;5.15;;;0.90;;
9860;SDS011;4969;52.304;4.968;2024-03-02T09:24:12;2.45;;;0.73;;
9860;SDS011;4969;52.304;4.968;2024-03-02T09:26:38;3.33;;;1.00;;
9860;SDS011;4969;52.304;4.968;2024-03-02T09:29:05;3.22;;;0.88;;
9860;SDS011;4969;52.304;4.968;2024-03-02T09:31:33;3.53;;;1.23;;
9860;SDS011;4969;52.304;4.968;2024-03-02T09:34:05;2.95;;;1.20;;
9860;SDS011;4969;52.304;4.968;2024-03-02T09:36:31;1.85;;;0.95;;
9860;SDS011;4969;52.304;4.968;2024-03-02T09:38:58;1.88;;;0.82;;
9860;SDS011;4969;52.304;4.968;2024-03-02T09:41:24;3.60;;;1.10;;
9860;SDS011;4969;52.304;4.968;2024-03-02T09:43:51;2.83;;;1.10;;
9860;SDS011;4969;52.304;4.968;2024-03-02T09:46:18;2.30;;;1.05;;
9860;SDS011;4969;52.304;4.968;2024-03-02T09:48:47;2.75;;;1.20;;
9860;SDS011;4969;52.304;4.968;2024-03-02T09:51:13;2.70;;;0.93;;
9860;SDS011;4969;52.304;4.968;2024-03-02T09:53:44;2.15;;;1.10;;
9860;SDS011;4969;52.304;4.968;2024-03-02T09:56:12;2.25;;;0.95;;
9860;SDS011;4969;52.304;4.968;2024-03-02T09:58:40;3.05;;;1.15;;
9860;SDS011;4969;52.304;4.968;2024-03-02T10:01:07;2.38;;;1.08;;
9860;SDS011;4969;52.304;4.968;2024-03-02T10:03:35;2.92;;;1.40;;
9860;SDS011;4969;52.304;4.968;2024-03-02T10:06:19;2.03;;;1.02;;
9860;SDS011;4969;52.304;4.968;2024-03-02T10:08:47;2.75;;;1.08;;
9860;SDS011;4969;52.304;4.968;2024-03-02T10:11:25;2.08;;;0.98;;
9860;SDS011;4969;52.304;4.968;2024-03-02T10:14:03;2.58;;;1.17;;
9860;SDS011;4969;52.304;4.968;2024-03-02T10:16:33;3.63;;;1.30;;
9860;SDS011;4969;52.304;4.968;2024-03-02T10:19:05;2.97;;;1.00;;
9860;SDS011;4969;52.304;4.968;2024-03-02T10:21:43;2.55;;;1.48;;
9860;SDS011;4969;52.304;4.968;2024-03-02T10:24:10;1.08;;;0.55;;
9860;SDS011;4969;52.304;4.968;2024-03-02T10:26:37;1.75;;;0.80;;
9860;SDS011;4969;52.304;4.968;2024-03-02T10:29:04;1.60;;;0.73;;
9860;SDS011;4969;52.304;4.968;2024-03-02T10:31:30;2.83;;;1.08;;
9860;SDS011;4969;52.304;4.968;2024-03-02T10:33:58;4.45;;;1.30;;
9860;SDS011;4969;52.304;4.968;2024-03-02T10:36:25;2.08;;;1.00;;
9860;SDS011;4969;52.304;4.968;2024-03-02T10:38:53;2.10;;;1.00;;
9860;SDS011;4969;52.304;4.968;2024-03-02T10:41:24;3.67;;;1.00;;
9860;SDS011;4969;52.304;4.968;2024-03-02T10:43:53;1.58;;;1.10;;
9860;SDS011;4969;52.304;4.968;2024-03-02T10:46:24;2.88;;;0.85;;
9860;SDS011;4969;52.304;4.968;2024-03-02T10:48:53;3.28;;;1.30;;
9860;SDS011;4969;52.304;4.968;2024-03-02T10:51:20;2.13;;;1.20;;
9860;SDS011;4969;52.304;4.968;2024-03-02T10:53:46;1.98;;;1.02;;
9860;SDS011;4969;52.304;4.968;2024-03-02T10:56:15;3.05;;;1.23;;
9860;SDS011;4969;52.304;4.968;2024-03-02T10:58:55;3.10;;;1.20;;
9860;SDS011;4969;52.304;4.968;2024-03-02T11:01:27;3.95;;;1.15;;
9860;SDS011;4969;52.304;4.968;2024-03-02T11:03:56;2.22;;;0.80;;
9860;SDS011;4969;52.304;4.968;2024-03-02T11:06:23;2.63;;;1.10;;
9860;SDS011;4969;52.304;4.968;2024-03-02T11:08:52;3.40;;;1.15;;
9860;SDS011;4969;52.304;4.968;2024-03-02T11:11:27;2.47;;;1.33;;
9860;SDS011;4969;52.304;4.968;2024-03-02T11:13:56;1.88;;;0.90;;
9860;SDS011;4969;52.304;4.968;2024-03-02T11:16:27;4.07;;;1.10;;
9860;SDS011;4969;52.304;4.968;2024-03-02T11:19:00;2.83;;;1.23;;
9860;SDS011;4969;52.304;4.968;2024-03-02T11:21:29;5.75;;;2.05;;
9860;SDS011;4969;52.304;4.968;2024-03-02T11:23:58;2.08;;;1.10;;
9860;SDS011;4969;52.304;4.968;2024-03-02T11:26:25;2.00;;;1.15;;
9860;SDS011;4969;52.304;4.968;2024-03-02T11:28:53;2.45;;;1.20;;
9860;SDS011;4969;52.304;4.968;2024-03-02T11:31:21;1.70;;;0.90;;
9860;SDS011;4969;52.304;4.968;2024-03-02T11:33:47;2.00;;;1.05;;
9860;SDS011;4969;52.304;4.968;2024-03-02T11:36:14;1.50;;;0.98;;
9860;SDS011;4969;52.304;4.968;2024-03-02T11:38:43;2.63;;;0.82;;
9860;SDS011;4969;52.304;4.968;2024-03-02T11:41:11;3.20;;;0.90;;
9860;SDS011;4969;52.304;4.968;2024-03-02T11:43:40;3.80;;;1.00;;
9860;SDS011;4969;52.304;4.968;2024-03-02T11:46:09;1.83;;;0.95;;
9860;SDS011;4969;52.304;4.968;2024-03-02T11:48:38;1.63;;;0.80;;
9860;SDS011;4969;52.304;4.968;2024-03-02T11:51:05;2.20;;;0.80;;
9860;SDS011;4969;52.304;4.968;2024-03-02T11:53:32;1.23;;;0.85;;
9860;SDS011;4969;52.304;4.968;2024-03-02T11:56:01;2.03;;;1.15;;
9860;SDS011;4969;52.304;4.968;2024-03-02T11:58:30;2.35;;;1.23;;
9860;SDS011;4969;52.304;4.968;2024-03-02T12:01:00;1.50;;;1.10;;
9860;SDS011;4969;52.304;4.968;2024-03-02T12:03:27;3.03;;;0.85;;
9860;SDS011;4969;52.304;4.968;2024-03-02T12:05:54;1.58;;;1.20;;
9860;SDS011;4969;52.304;4.968;2024-03-02T12:08:21;2.58;;;1.08;;
9860;SDS011;4969;52.304;4.968;2024-03-02T12:10:55;0.93;;;0.65;;
9860;SDS011;4969;52.304;4.968;2024-03-02T12:13:22;1.25;;;0.90;;
9860;SDS011;4969;52.304;4.968;2024-03-02T12:15:52;3.35;;;1.00;;
9860;SDS011;4969;52.304;4.968;2024-03-02T12:18:21;2.80;;;1.02;;
9860;SDS011;4969;52.304;4.968;2024-03-02T12:20:48;3.63;;;1.25;;
9860;SDS011;4969;52.304;4.968;2024-03-02T12:23:17;1.65;;;1.20;;
9860;SDS011;4969;52.304;4.968;2024-03-02T12:25:44;1.60;;;0.75;;
9860;SDS011;4969;52.304;4.968;2024-03-02T12:28:11;2.22;;;1.10;;
9860;SDS011;4969;52.304;4.968;2024-03-02T12:30:38;1.80;;;0.93;;
9860;SDS011;4969;52.304;4.968;2024-03-02T12:33:04;3.60;;;1.20;;
9860;SDS011;4969;52.304;4.968;2024-03-02T12:35:32;1.77;;;0.73;;
9860;SDS011;4969;52.304;4.968;2024-03-02T12:37:59;3.33;;;1.92;;
9860;SDS011;4969;52.304;4.968;2024-03-02T12:40:25;2.65;;;1.13;;
9860;SDS011;4969;52.304;4.968;2024-03-02T12:42:52;3.20;;;1.27;;
9860;SDS011;4969;52.304;4.968;2024-03-02T12:45:19;3.22;;;1.30;;
9860;SDS011;4969;52.304;4.968;2024-03-02T12:47:48;1.25;;;0.90;;
9860;SDS011;4969;52.304;4.968;2024-03-02T12:50:15;2.63;;;1.00;;
9860;SDS011;4969;52.304;4.968;2024-03-02T12:52:43;1.83;;;0.73;;
9860;SDS011;4969;52.304;4.968;2024-03-02T12:55:16;1.52;;;0.90;;
9860;SDS011;4969;52.304;4.968;2024-03-02T12:57:43;1.63;;;0.80;;
9860;SDS011;4969;52.304;4.968;2024-03-02T13:00:10;1.95;;;1.13;;
9860;SDS011;4969;52.304;4.968;2024-03-02T13:02:39;3.78;;;1.45;;
9860;SDS011;4969;52.304;4.968;2024-03-02T13:05:07;2.83;;;0.80;;
9860;SDS011;4969;52.304;4.968;2024-03-02T13:07:36;1.17;;;0.80;;
9860;SDS011;4969;52.304;4.968;2024-03-02T13:10:05;2.20;;;0.93;;
9860;SDS011;4969;52.304;4.968;2024-03-02T13:12:33;5.10;;;1.30;;
9860;SDS011;4969;52.304;4.968;2024-03-02T13:15:02;1.70;;;0.80;;
9860;SDS011;4969;52.304;4.968;2024-03-02T13:17:30;1.95;;;1.00;;
9860;SDS011;4969;52.304;4.968;2024-03-02T13:19:58;2.08;;;1.15;;
9860;SDS011;4969;52.304;4.968;2024-03-02T13:22:25;2.35;;;0.80;;
9860;SDS011;4969;52.304;4.968;2024-03-02T13:24:53;2.15;;;1.05;;
9860;SDS011;4969;52.304;4.968;2024-03-02T13:27:21;2.80;;;1.08;;
9860;SDS011;4969;52.304;4.968;2024-03-02T13:29:47;1.90;;;0.82;;
9860;SDS011;4969;52.304;4.968;2024-03-02T13:32:14;2.35;;;1.08;;
9860;SDS011;4969;52.304;4.968;2024-03-02T13:34:41;2.47;;;0.90;;
9860;SDS011;4969;52.304;4.968;2024-03-02T13:37:07;1.38;;;0.80;;
9860;SDS011;4969;52.304;4.968;2024-03-02T13:39:34;2.22;;;1.02;;
9860;SDS011;4969;52.304;4.968;2024-03-02T13:42:05;2.03;;;0.98;;
9860;SDS011;4969;52.304;4.968;2024-03-02T13:44:34;3.40;;;1.27;;
9860;SDS011;4969;52.304;4.968;2024-03-02T13:47:01;3.80;;;1.10;;
9860;SDS011;4969;52.304;4.968;2024-03-02T13:49:29;2.50;;;1.00;;
9860;SDS011;4969;52.304;4.968;2024-03-02T13:52:00;4.80;;;1.33;;
9860;SDS011;4969;52.304;4.968;2024-03-02T13:54:29;2.38;;;1.20;;
9860;SDS011;4969;52.304;4.968;2024-03-02T13:56:55;2.75;;;1.15;;
9860;SDS011;4969;52.304;4.968;2024-03-02T13:59:23;3.05;;;1.15;;
9860;SDS011;4969;52.304;4.968;2024-03-02T14:01:52;3.22;;;1.00;;
9860;SDS011;4969;52.304;4.968;2024-03-02T14:04:19;2.00;;;0.93;;
9860;SDS011;4969;52.304;4.968;2024-03-02T14:06:45;2.35;;;1.00;;
9860;SDS011;4969;52.304;4.968;2024-03-02T14:09:15;2.38;;;1.20;;
9860;SDS011;4969;52.304;4.968;2024-03-02T14:11:44;2.08;;;0.95;;
9860;SDS011;4969;52.304;4.968;2024-03-02T14:14:10;2.72;;;1.40;;
9860;SDS011;4969;52.304;4.968;2024-03-02T14:16:37;4.45;;;1.20;;
9860;SDS011;4969;52.304;4.968;2024-03-02T14:19:05;3.97;;;1.40;;
9860;SDS011;4969;52.304;4.968;2024-03-02T14:21:31;3.78;;;1.10;;
9860;SDS011;4969;52.304;4.968;2024-03-02T14:24:00;1.85;;;1.35;;
9860;SDS011;4969;52.304;4.968;2024-03-02T14:26:27;2.00;;;1.10;;
9860;SDS011;4969;52.304;4.968;2024-03-02T14:28:53;2.10;;;1.30;;
9860;SDS011;4969;52.304;4.968;2024-03-02T14:31:20;2.35;;;1.30;;
9860;SDS011;4969;52.304;4.968;2024-03-02T14:33:47;3.55;;;1.60;;
9860;SDS011;4969;52.304;4.968;2024-03-02T14:36:15;1.13;;;0.95;;
9860;SDS011;4969;52.304;4.968;2024-03-02T14:38:42;3.97;;;1.33;;
9860;SDS011;4969;52.304;4.968;2024-03-02T14:41:08;2.83;;;1.30;;
9860;SDS011;4969;52.304;4.968;2024-03-02T14:43:35;2.47;;;1.10;;
9860;SDS011;4969;52.304;4.968;2024-03-02T14:46:03;3.15;;;1.17;;
9860;SDS011;4969;52.304;4.968;2024-03-02T14:48:29;2.00;;;0.90;;
9860;SDS011;4969;52.304;4.968;2024-03-02T14:50:56;2.00;;;1.13;;
9860;SDS011;4969;52.304;4.968;2024-03-02T14:53:24;1.38;;;0.90;;
9860;SDS011;4969;52.304;4.968;2024-03-02T14:55:51;2.30;;;1.10;;
9860;SDS011;4969;52.304;4.968;2024-03-02T14:58:18;1.55;;;1.13;;
9860;SDS011;4969;52.304;4.968;2024-03-02T15:00:44;1.20;;;0.80;;
9860;SDS011;4969;52.304;4.968;2024-03-02T15:03:11;4.60;;;1.40;;
9860;SDS011;4969;52.304;4.968;2024-03-02T15:05:38;3.42;;;1.23;;
9860;SDS011;4969;52.304;4.968;2024-03-02T15:08:05;1.90;;;1.23;;
9860;SDS011;4969;52.304;4.968;2024-03-02T15:10:34;3.17;;;1.25;;
9860;SDS011;4969;52.304;4.968;2024-03-02T15:13:01;1.85;;;1.00;;
9860;SDS011;4969;52.304;4.968;2024-03-02T15:15:28;3.45;;;1.20;;
9860;SDS011;4969;52.304;4.968;2024-03-02T15:17:54;3.63;;;1.40;;